Disclaimer

Please do not use the information listed here in-flight or in-navigation, as they are not provided to us by the airports but are provided by volunteers, so they might be outdated.

Search


Regions


Airport information page

Radio informations:
HANDLING - 131.55 MHz
ARR - 120.7 MHz

Airport informations:
Latitude: 57° 05' 34.04" N
Longitude: 009° 50' 56.99" E
Elevation: 10 feet - 3 meters
Operating hours: Remarks
Operating agency: Military-civil joint use airport
Timezone: UTC+1(+2DT) - Second Sunday in March at 0200 to first Sunday in November at 0200 local time (Exception Arizona and that portion of Indiana in the Eastern Time Zone)
Fuel: Jet A1+, Jet A1 with icing inhibitor.

Jet A1, without icing nhibitor.

100/130 MIL Spec, low lead, aviation gasoline (BLUE)

Runway information:
08R/26L - 8363 x 74 feet< - >2549 x 23 meters
08L/26R - 8707 x 148 feet< - >2654 x 45 meters

Recent METARs:
EKYT 170920Z AUTO 02002KT 9999 BKN055/// 00/M03 Q0992 R26L/710195
EKYT 170950Z 03002KT CAVOK 00/M03 Q0992 R26L/710195 RMK BKN070 SCT120
EKYT 171020Z 04005KT 360V070 CAVOK 01/M03 Q0992 R26L/710195 RMK BKN065

Airport on the map: